createdAt,value
2019-05-16T00:00:21.886Z,10.84
2019-05-16T00:00:58.739Z,10.84
2019-05-16T00:01:35.299Z,10.82
2019-05-16T00:02:11.593Z,10.82
2019-05-16T00:02:48.117Z,10.80
2019-05-16T00:03:23.867Z,10.81
2019-05-16T00:03:59.959Z,10.77
2019-05-16T00:04:37.865Z,10.82
2019-05-16T00:05:14.650Z,10.84
2019-05-16T00:05:54.462Z,10.75
2019-05-16T00:06:29.220Z,10.69
2019-05-16T00:07:05.371Z,10.69
2019-05-16T00:07:42.237Z,10.70
2019-05-16T00:08:18.043Z,10.77
2019-05-16T00:08:54.054Z,10.72
2019-05-16T00:09:30.532Z,10.73
2019-05-16T00:10:08.375Z,10.70
2019-05-16T00:10:44.341Z,10.70
2019-05-16T00:11:20.379Z,10.75
2019-05-16T00:11:58.095Z,10.71
2019-05-16T00:12:33.748Z,10.67
2019-05-16T00:13:10.518Z,10.71
2019-05-16T00:13:48.591Z,10.66
2019-05-16T00:14:23.699Z,10.72
2019-05-16T00:14:59.766Z,10.76
2019-05-16T00:15:37.760Z,10.72
2019-05-16T00:16:13.590Z,10.76
2019-05-16T00:16:50.717Z,10.71
2019-05-16T00:17:28.460Z,10.73
2019-05-16T00:18:03.934Z,10.73
2019-05-16T00:18:40.219Z,10.74
2019-05-16T00:19:18.094Z,10.72
2019-05-16T00:19:54.301Z,10.79
2019-05-16T00:20:30.332Z,10.75
2019-05-16T00:21:08.561Z,10.70
2019-05-16T00:21:43.862Z,10.71
2019-05-16T00:22:19.880Z,10.73
2019-05-16T00:22:55.734Z,10.83
2019-05-16T00:23:32.200Z,10.82
2019-05-16T00:24:08.449Z,10.77
2019-05-16T00:24:44.428Z,10.72
2019-05-16T00:25:20.437Z,10.73
2019-05-16T00:25:58.620Z,10.71
2019-05-16T00:26:35.082Z,10.70
2019-05-16T00:27:10.727Z,10.70
2019-05-16T00:27:47.923Z,10.74
2019-05-16T00:28:24.785Z,10.72
2019-05-16T00:29:00.422Z,10.74
2019-05-16T00:29:38.302Z,10.75
2019-05-16T00:30:14.740Z,10.78
2019-05-16T00:30:50.352Z,10.77
2019-05-16T00:31:28.712Z,10.77
2019-05-16T00:32:04.958Z,10.74
2019-05-16T00:32:40.574Z,10.73
2019-05-16T00:33:18.357Z,10.73
2019-05-16T00:33:54.399Z,10.77
2019-05-16T00:34:30.600Z,10.84
2019-05-16T00:35:09.267Z,10.71
2019-05-16T00:35:45.677Z,10.69
2019-05-16T00:36:21.604Z,10.69
2019-05-16T00:36:58.170Z,10.67
2019-05-16T00:37:34.148Z,10.67
2019-05-16T00:38:09.786Z,10.66
2019-05-16T00:38:45.773Z,10.63
2019-05-16T00:39:21.984Z,10.59
2019-05-16T00:39:58.764Z,10.55
2019-05-16T00:40:35.037Z,10.56
2019-05-16T00:41:10.836Z,10.54
2019-05-16T00:41:47.901Z,10.56
2019-05-16T00:42:24.018Z,10.54
2019-05-16T00:43:00.298Z,10.55
2019-05-16T00:43:37.915Z,10.54
2019-05-16T00:44:13.977Z,10.55
2019-05-16T00:44:50.180Z,10.54
2019-05-16T00:45:25.905Z,10.52
2019-05-16T00:46:02.740Z,10.52
2019-05-16T00:46:38.786Z,10.52
2019-05-16T00:47:14.710Z,10.55
2019-05-16T00:47:50.705Z,10.52
2019-05-16T00:48:28.803Z,10.54
2019-05-16T00:49:04.716Z,10.52
2019-05-16T00:49:40.777Z,10.48
2019-05-16T00:50:18.335Z,10.48
2019-05-16T00:50:54.179Z,10.51
2019-05-16T00:51:31.065Z,10.50
2019-05-16T00:52:07.776Z,10.47
2019-05-16T00:52:43.514Z,10.48
2019-05-16T00:53:19.947Z,10.46
2019-05-16T00:53:56.330Z,10.48
2019-05-16T00:54:33.302Z,10.57
2019-05-16T00:55:09.735Z,10.58
2019-05-16T00:55:47.945Z,10.62
2019-05-16T00:56:23.682Z,10.58
2019-05-16T00:57:01.513Z,10.55
2019-05-16T00:57:38.865Z,10.55
2019-05-16T00:58:15.228Z,10.66
2019-05-16T00:58:51.901Z,10.70
2019-05-16T00:59:28.964Z,10.66
2019-05-16T01:00:05.602Z,10.63
2019-05-16T01:00:49.959Z,10.59
2019-05-16T01:01:28.154Z,10.59
2019-05-16T01:02:03.395Z,10.59
2019-05-16T01:02:40.242Z,10.61
2019-05-16T01:03:16.299Z,10.63
2019-05-16T01:03:52.042Z,10.61
2019-05-16T01:04:28.870Z,10.61
2019-05-16T01:05:05.231Z,10.57
2019-05-16T01:05:40.897Z,10.63
2019-05-16T01:06:22.492Z,10.75
2019-05-16T01:06:54.928Z,10.71
2019-05-16T01:07:30.645Z,10.66
2019-05-16T01:08:07.844Z,10.72
2019-05-16T01:08:43.867Z,10.66
2019-05-16T01:09:19.956Z,10.58
2019-05-16T01:09:58.165Z,10.64
2019-05-16T01:10:33.659Z,10.57
2019-05-16T01:11:09.315Z,10.54
2019-05-16T01:11:48.508Z,10.54
2019-05-16T01:12:24.226Z,10.54
2019-05-16T01:12:59.908Z,10.60
2019-05-16T01:13:38.052Z,10.57
2019-05-16T01:14:14.459Z,10.58
2019-05-16T01:14:50.580Z,10.59
2019-05-16T01:15:28.731Z,10.50
2019-05-16T01:16:04.208Z,10.51
2019-05-16T01:16:39.862Z,10.53
2019-05-16T01:17:18.207Z,10.52
2019-05-16T01:17:54.173Z,10.52
2019-05-16T01:18:29.845Z,10.57
2019-05-16T01:19:08.286Z,10.60
2019-05-16T01:19:43.519Z,10.61
2019-05-16T01:20:19.485Z,10.61
2019-05-16T01:20:58.401Z,10.59
2019-05-16T01:21:34.245Z,10.60
2019-05-16T01:22:09.895Z,10.57
2019-05-16T01:22:45.923Z,10.54
2019-05-16T01:23:22.097Z,10.60
2019-05-16T01:23:58.662Z,10.59
2019-05-16T01:24:34.691Z,10.65
2019-05-16T01:25:10.926Z,10.68
2019-05-16T01:25:48.439Z,10.69
2019-05-16T01:26:24.417Z,10.69
2019-05-16T01:27:00.268Z,10.71
2019-05-16T01:27:38.364Z,10.72
2019-05-16T01:28:13.921Z,10.65
2019-05-16T01:28:49.772Z,10.68
2019-05-16T01:29:28.070Z,10.68
2019-05-16T01:30:03.762Z,10.66
2019-05-16T01:30:40.014Z,10.68
2019-05-16T01:31:15.665Z,10.67
2019-05-16T01:31:51.731Z,10.70
2019-05-16T01:32:29.126Z,10.68
2019-05-16T01:33:05.567Z,10.69
2019-05-16T01:33:42.060Z,10.63
2019-05-16T01:34:18.203Z,10.65
2019-05-16T01:34:54.131Z,10.65
2019-05-16T01:35:30.320Z,10.61
2019-05-16T01:36:08.800Z,10.63
2019-05-16T01:36:44.027Z,10.66
2019-05-16T01:37:20.069Z,10.67
2019-05-16T01:37:58.095Z,10.67
2019-05-16T01:38:33.799Z,10.73
2019-05-16T01:39:09.889Z,10.71
2019-05-16T01:39:48.275Z,10.66
2019-05-16T01:40:23.447Z,10.66
2019-05-16T01:40:59.520Z,10.69
2019-05-16T01:41:38.049Z,10.67
2019-05-16T01:42:13.412Z,10.64
2019-05-16T01:42:49.414Z,10.64
2019-05-16T01:43:25.547Z,10.64
2019-05-16T01:44:01.230Z,10.75
2019-05-16T01:44:38.229Z,10.72
2019-05-16T01:45:14.330Z,10.67
2019-05-16T01:45:50.046Z,10.66
2019-05-16T01:46:28.396Z,10.76
2019-05-16T01:47:04.055Z,10.69
2019-05-16T01:47:39.678Z,10.57
2019-05-16T01:48:18.760Z,10.53
2019-05-16T01:48:53.562Z,10.59
2019-05-16T01:49:29.221Z,10.60
2019-05-16T01:50:05.527Z,10.61
2019-05-16T01:50:41.321Z,10.57
2019-05-16T01:51:18.474Z,10.53
2019-05-16T01:51:54.839Z,10.55
2019-05-16T01:52:30.841Z,10.52
2019-05-16T01:53:08.682Z,10.55
2019-05-16T01:53:44.760Z,10.61
2019-05-16T01:54:21.427Z,10.60
2019-05-16T01:54:58.705Z,10.55
2019-05-16T01:55:34.944Z,10.55
2019-05-16T01:56:11.086Z,10.58
2019-05-16T01:56:48.122Z,10.59
2019-05-16T01:57:24.292Z,10.58
2019-05-16T01:58:00.585Z,10.56
2019-05-16T01:58:38.271Z,10.28
2019-05-16T01:59:14.245Z,10.20
2019-05-16T01:59:50.078Z,10.53
2019-05-16T02:00:35.929Z,10.51
2019-05-16T02:01:12.258Z,10.56
2019-05-16T02:01:42.269Z,10.57
2019-05-16T02:02:18.534Z,10.51
2019-05-16T02:02:55.020Z,10.49
2019-05-16T02:03:30.859Z,10.41
2019-05-16T02:04:11.788Z,10.51
2019-05-16T02:04:44.276Z,10.55
2019-05-16T02:05:20.499Z,10.50
2019-05-16T02:05:58.527Z,10.46
2019-05-16T02:06:50.078Z,10.41
2019-05-16T02:07:12.751Z,10.43
2019-05-16T02:07:48.701Z,10.43
2019-05-16T02:08:25.056Z,10.41
2019-05-16T02:09:01.025Z,10.46
2019-05-16T02:09:38.423Z,10.46
2019-05-16T02:10:14.943Z,10.43
2019-05-16T02:10:51.609Z,10.47
2019-05-16T02:11:28.532Z,10.44
2019-05-16T02:12:05.080Z,10.54
2019-05-16T02:12:41.482Z,10.51
2019-05-16T02:13:17.999Z,10.48
2019-05-16T02:13:54.260Z,10.43
2019-05-16T02:14:30.084Z,10.47
2019-05-16T02:15:07.860Z,10.48
2019-05-16T02:15:44.391Z,10.42
2019-05-16T02:16:20.237Z,10.37
2019-05-16T02:16:58.053Z,10.36
2019-05-16T02:17:34.583Z,10.35
2019-05-16T02:18:10.376Z,10.35
2019-05-16T02:18:46.122Z,10.39
2019-05-16T02:19:22.144Z,10.33
2019-05-16T02:19:58.520Z,10.30
2019-05-16T02:20:34.150Z,10.26
2019-05-16T02:21:10.703Z,10.23
2019-05-16T02:21:47.595Z,10.25
2019-05-16T02:22:24.729Z,10.25
2019-05-16T02:23:00.785Z,10.29
2019-05-16T02:23:38.258Z,10.23
2019-05-16T02:24:13.915Z,10.21
2019-05-16T02:24:49.929Z,10.19
2019-05-16T02:25:27.706Z,10.20
2019-05-16T02:26:03.882Z,10.17
2019-05-16T02:26:40.044Z,10.18
2019-05-16T02:27:18.240Z,10.18
2019-05-16T02:27:53.659Z,10.22
2019-05-16T02:28:39.129Z,10.22
2019-05-16T02:29:13.304Z,10.18
2019-05-16T02:29:45.181Z,10.21
2019-05-16T02:30:22.509Z,10.17
2019-05-16T02:31:01.283Z,10.14
2019-05-16T02:31:36.370Z,10.10
2019-05-16T02:32:12.809Z,10.13
2019-05-16T02:32:52.370Z,10.16
2019-05-16T02:33:26.857Z,10.15
2019-05-16T02:34:04.794Z,10.13
2019-05-16T02:34:41.638Z,10.08
2019-05-16T02:35:21.021Z,10.08
2019-05-16T02:35:56.429Z,10.11
2019-05-16T02:36:32.350Z,10.14
2019-05-16T02:37:20.155Z,10.26
2019-05-16T02:37:45.734Z,10.21
2019-05-16T02:38:21.893Z,10.24
2019-05-16T02:39:01.096Z,10.19
2019-05-16T02:39:35.741Z,10.15
2019-05-16T02:40:12.579Z,10.18
2019-05-16T02:40:51.203Z,10.17
2019-05-16T02:41:26.401Z,10.17
2019-05-16T02:42:02.638Z,10.14
2019-05-16T02:42:41.914Z,10.16
2019-05-16T02:43:16.253Z,10.14
2019-05-16T02:43:52.136Z,10.22
2019-05-16T02:44:31.471Z,10.23
2019-05-16T02:45:10.669Z,10.23
2019-05-16T02:45:45.571Z,10.17
2019-05-16T02:46:21.982Z,10.08
2019-05-16T02:47:01.631Z,10.10
2019-05-16T02:47:36.575Z,10.04
2019-05-16T02:48:12.603Z,10.21
2019-05-16T02:48:51.590Z,10.14
2019-05-16T02:49:26.248Z,10.17
2019-05-16T02:50:02.263Z,10.16
2019-05-16T02:50:41.417Z,10.11
2019-05-16T02:51:17.152Z,10.11
2019-05-16T02:51:53.909Z,10.14
2019-05-16T02:52:31.707Z,10.19
2019-05-16T02:53:07.979Z,10.16
2019-05-16T02:53:43.607Z,10.20
2019-05-16T02:54:21.872Z,10.21
2019-05-16T02:55:00.759Z,10.23
2019-05-16T02:55:35.706Z,10.20
2019-05-16T02:56:12.366Z,10.20
2019-05-16T02:56:50.677Z,10.19
2019-05-16T02:57:26.631Z,10.14
2019-05-16T02:58:02.717Z,10.14
2019-05-16T02:58:44.271Z,10.15
2019-05-16T02:59:16.858Z,10.14
2019-05-16T02:59:52.931Z,10.14
2019-05-16T03:00:42.584Z,10.07
2019-05-16T03:01:16.111Z,10.07
2019-05-16T03:01:52.448Z,10.03
2019-05-16T03:02:31.209Z,10.01
2019-05-16T03:03:07.462Z,9.97
2019-05-16T03:03:44.180Z,9.96
2019-05-16T03:04:21.327Z,10.02
2019-05-16T03:05:00.644Z,10.08
2019-05-16T03:05:36.235Z,10.01
2019-05-16T03:06:13.447Z,9.97
2019-05-16T03:06:51.292Z,9.98
2019-05-16T03:07:37.678Z,10.07
2019-05-16T03:08:05.646Z,10.13
2019-05-16T03:08:42.215Z,10.03
2019-05-16T03:09:20.882Z,10.03
2019-05-16T03:10:01.090Z,10.00
2019-05-16T03:10:35.726Z,9.97
2019-05-16T03:11:12.184Z,9.98
2019-05-16T03:11:50.992Z,9.97
2019-05-16T03:12:30.898Z,9.96
2019-05-16T03:13:06.527Z,9.96
2019-05-16T03:13:43.433Z,9.93
2019-05-16T03:14:21.475Z,9.92
2019-05-16T03:15:02.440Z,9.93
2019-05-16T03:15:37.061Z,9.95
2019-05-16T03:16:12.910Z,9.95
2019-05-16T03:16:50.730Z,9.95
2019-05-16T03:17:31.621Z,9.94
2019-05-16T03:18:05.891Z,9.98
2019-05-16T03:18:42.334Z,10.01
2019-05-16T03:19:21.671Z,9.98
2019-05-16T03:20:01.436Z,9.97
2019-05-16T03:20:40.861Z,9.94
2019-05-16T03:21:16.735Z,9.94
2019-05-16T03:21:54.659Z,9.97
2019-05-16T03:22:31.691Z,9.96
2019-05-16T03:23:11.012Z,9.94
2019-05-16T03:23:45.019Z,9.90
2019-05-16T03:24:21.036Z,9.91
2019-05-16T03:24:56.880Z,9.93
2019-05-16T03:25:33.321Z,9.96
2019-05-16T03:26:11.810Z,9.95
2019-05-16T03:26:47.597Z,9.93
2019-05-16T03:27:23.785Z,9.96
2019-05-16T03:28:01.890Z,9.98
2019-05-16T03:28:37.782Z,9.96
2019-05-16T03:29:13.499Z,9.96
2019-05-16T03:29:50.658Z,9.95
2019-05-16T03:30:26.862Z,9.92
2019-05-16T03:31:05.019Z,9.90
2019-05-16T03:31:44.343Z,9.94
2019-05-16T03:32:23.590Z,9.91
2019-05-16T03:32:55.918Z,9.95
2019-05-16T03:33:40.472Z,9.90
2019-05-16T03:34:14.872Z,9.94
2019-05-16T03:34:47.255Z,9.91
2019-05-16T03:35:25.057Z,9.92
2019-05-16T03:36:04.544Z,9.89
2019-05-16T03:36:44.080Z,9.85
2019-05-16T03:37:16.657Z,9.83
2019-05-16T03:37:59.672Z,9.80
2019-05-16T03:38:30.748Z,9.84
2019-05-16T03:39:10.510Z,9.82
2019-05-16T03:39:45.206Z,9.89
2019-05-16T03:40:31.053Z,9.87
2019-05-16T03:41:05.843Z,9.84
2019-05-16T03:41:41.678Z,9.81
2019-05-16T03:42:20.268Z,9.85
2019-05-16T03:42:55.599Z,9.86
2019-05-16T03:43:31.527Z,9.86
2019-05-16T03:44:07.182Z,9.85
2019-05-16T03:44:43.336Z,9.84
2019-05-16T03:45:21.198Z,9.82
2019-05-16T03:45:57.243Z,9.87
2019-05-16T03:46:33.548Z,9.85
2019-05-16T03:47:11.296Z,9.87
2019-05-16T03:47:46.728Z,9.86
2019-05-16T03:48:23.209Z,9.82
2019-05-16T03:49:02.503Z,9.90
2019-05-16T03:49:36.903Z,9.88
2019-05-16T03:50:13.094Z,9.82
2019-05-16T03:50:50.799Z,9.81
2019-05-16T03:51:26.581Z,9.81
2019-05-16T03:52:02.959Z,9.79
2019-05-16T03:52:42.915Z,9.77
2019-05-16T03:53:16.692Z,9.78
2019-05-16T03:53:52.724Z,9.80
2019-05-16T03:54:31.426Z,9.79
2019-05-16T03:55:06.822Z,9.83
2019-05-16T03:55:42.843Z,9.81
2019-05-16T03:56:21.692Z,9.84
2019-05-16T03:56:56.644Z,9.85
2019-05-16T03:57:33.125Z,9.83
2019-05-16T03:58:11.689Z,9.85
2019-05-16T03:58:46.617Z,9.89
2019-05-16T03:59:23.037Z,9.88
2019-05-16T04:00:00.564Z,9.86
2019-05-16T04:01:02.528Z,9.87
2019-05-16T04:01:41.070Z,9.90
2019-05-16T04:02:17.005Z,9.86
2019-05-16T04:02:53.193Z,9.86
2019-05-16T04:03:33.000Z,9.88
2019-05-16T04:04:07.104Z,9.90
2019-05-16T04:04:42.735Z,9.90
2019-05-16T04:05:21.137Z,9.87
2019-05-16T04:05:56.790Z,9.85
2019-05-16T04:06:32.800Z,9.87
2019-05-16T04:07:10.961Z,9.87
2019-05-16T04:07:46.371Z,9.92
2019-05-16T04:08:24.774Z,10.11
2019-05-16T04:09:01.593Z,10.08
2019-05-16T04:09:40.907Z,10.07
2019-05-16T04:10:15.479Z,10.04
2019-05-16T04:10:52.396Z,9.96
2019-05-16T04:11:32.146Z,9.92
2019-05-16T04:12:06.324Z,9.91
2019-05-16T04:12:42.445Z,9.91
2019-05-16T04:13:21.267Z,9.91
2019-05-16T04:13:56.566Z,9.94
2019-05-16T04:14:32.976Z,9.98
2019-05-16T04:15:11.385Z,10.03
2019-05-16T04:15:47.522Z,10.00
2019-05-16T04:16:23.955Z,9.96
2019-05-16T04:17:01.746Z,9.98
2019-05-16T04:17:40.847Z,10.02
2019-05-16T04:18:15.595Z,10.01
2019-05-16T04:18:51.739Z,10.08
2019-05-16T04:19:27.424Z,10.04
2019-05-16T04:20:03.839Z,10.03
2019-05-16T04:20:40.636Z,10.00
2019-05-16T04:21:17.730Z,9.97
2019-05-16T04:21:54.853Z,10.01
2019-05-16T04:22:31.814Z,10.03
2019-05-16T04:23:11.016Z,10.12
2019-05-16T04:23:45.742Z,10.07
2019-05-16T04:24:21.937Z,9.99
2019-05-16T04:24:57.634Z,9.95
2019-05-16T04:25:33.717Z,9.95
2019-05-16T04:26:11.354Z,9.95
2019-05-16T04:26:47.198Z,9.94
2019-05-16T04:27:23.561Z,9.95
2019-05-16T04:28:01.013Z,10.00
2019-05-16T04:28:40.965Z,10.02
2019-05-16T04:29:15.718Z,10.03
2019-05-16T04:29:52.162Z,10.03
2019-05-16T04:30:31.040Z,10.16
2019-05-16T04:31:05.553Z,10.18
2019-05-16T04:31:41.738Z,10.21
2019-05-16T04:32:20.571Z,10.20
2019-05-16T04:32:55.647Z,10.19
2019-05-16T04:33:31.852Z,10.18
2019-05-16T04:34:07.536Z,10.18
2019-05-16T04:34:43.539Z,10.15
2019-05-16T04:35:21.515Z,10.19
2019-05-16T04:35:57.456Z,10.17
2019-05-16T04:36:33.515Z,10.16
2019-05-16T04:37:11.445Z,10.19
2019-05-16T04:37:46.689Z,10.24
2019-05-16T04:38:35.063Z,10.22
2019-05-16T04:39:01.811Z,10.18
2019-05-16T04:39:41.243Z,10.21
2019-05-16T04:40:15.907Z,10.19
2019-05-16T04:40:52.232Z,10.25
2019-05-16T04:41:31.126Z,10.21
2019-05-16T04:42:05.616Z,10.19
2019-05-16T04:42:42.025Z,10.14
2019-05-16T04:43:17.721Z,10.19
2019-05-16T04:43:54.392Z,10.29
2019-05-16T04:44:31.168Z,10.25
2019-05-16T04:45:07.077Z,10.34
2019-05-16T04:45:43.579Z,10.35
2019-05-16T04:46:21.392Z,10.31
2019-05-16T04:46:57.169Z,10.42
2019-05-16T04:47:33.223Z,10.43
2019-05-16T04:48:11.265Z,10.41
2019-05-16T04:48:46.900Z,10.36
2019-05-16T04:49:22.930Z,10.37
2019-05-16T04:50:01.593Z,10.41
2019-05-16T04:50:36.604Z,10.43
2019-05-16T04:51:12.969Z,10.41
2019-05-16T04:51:51.494Z,10.38
2019-05-16T04:52:26.587Z,10.41
2019-05-16T04:53:02.648Z,10.43
2019-05-16T04:53:42.116Z,10.40
2019-05-16T04:54:16.071Z,10.42
2019-05-16T04:54:52.192Z,10.48
2019-05-16T04:55:31.374Z,10.47
2019-05-16T04:56:05.545Z,10.43
2019-05-16T04:56:41.875Z,10.58
2019-05-16T04:57:20.912Z,10.47
2019-05-16T04:57:55.440Z,10.45
2019-05-16T04:58:31.932Z,10.42
2019-05-16T04:59:12.987Z,10.47
2019-05-16T04:59:45.434Z,10.44
2019-05-16T05:00:21.892Z,10.46
2019-05-16T05:00:57.784Z,10.47
2019-05-16T05:01:34.499Z,10.51
2019-05-16T05:02:12.215Z,10.55
2019-05-16T05:02:48.075Z,10.51
2019-05-16T05:03:24.525Z,10.43
2019-05-16T05:04:10.281Z,10.35
2019-05-16T05:04:41.127Z,10.41
2019-05-16T05:05:16.434Z,10.47
2019-05-16T05:05:52.442Z,10.41
2019-05-16T05:06:31.339Z,10.37
2019-05-16T05:07:06.079Z,10.40
2019-05-16T05:07:42.065Z,10.39
2019-05-16T05:08:22.086Z,10.41
2019-05-16T05:08:58.929Z,10.49
2019-05-16T05:09:34.043Z,10.45
2019-05-16T05:10:11.223Z,10.45
2019-05-16T05:10:47.632Z,10.39
2019-05-16T05:11:23.667Z,10.40
2019-05-16T05:12:04.139Z,10.46
2019-05-16T05:12:37.351Z,10.40
2019-05-16T05:13:13.643Z,10.39
2019-05-16T05:13:50.628Z,10.44
2019-05-16T05:14:26.674Z,10.41
2019-05-16T05:15:02.819Z,10.40
2019-05-16T05:15:40.121Z,10.46
2019-05-16T05:16:15.856Z,10.48
2019-05-16T05:16:52.234Z,10.51
2019-05-16T05:17:30.542Z,10.53
2019-05-16T05:18:05.531Z,10.47
2019-05-16T05:18:41.856Z,10.51
2019-05-16T05:19:20.172Z,10.52
2019-05-16T05:19:55.189Z,10.48
2019-05-16T05:20:31.709Z,10.58
2019-05-16T05:21:07.970Z,10.58
2019-05-16T05:21:43.531Z,10.56
2019-05-16T05:22:20.301Z,10.53
2019-05-16T05:22:56.206Z,10.46
2019-05-16T05:23:31.859Z,10.59
2019-05-16T05:24:10.655Z,10.49
2019-05-16T05:24:46.462Z,10.54
2019-05-16T05:25:22.428Z,10.59
2019-05-16T05:26:00.268Z,10.56
2019-05-16T05:26:36.760Z,10.52
2019-05-16T05:27:12.394Z,10.50
2019-05-16T05:27:50.107Z,10.52
2019-05-16T05:28:26.148Z,10.52
2019-05-16T05:29:01.810Z,10.54
2019-05-16T05:29:39.838Z,10.52
2019-05-16T05:30:16.410Z,10.48
2019-05-16T05:30:52.076Z,10.51
2019-05-16T05:31:34.384Z,10.51
2019-05-16T05:32:06.137Z,10.52
2019-05-16T05:32:41.757Z,10.55
2019-05-16T05:33:17.791Z,10.51
2019-05-16T05:33:53.709Z,10.52
2019-05-16T05:34:30.512Z,10.55
2019-05-16T05:35:07.117Z,10.58
2019-05-16T05:35:42.977Z,10.58
2019-05-16T05:36:20.989Z,10.61
2019-05-16T05:36:56.450Z,10.64
2019-05-16T05:37:32.745Z,10.64
2019-05-16T05:38:10.365Z,10.65
2019-05-16T05:38:48.459Z,10.78
2019-05-16T05:39:24.516Z,10.78
2019-05-16T05:40:00.346Z,10.80
2019-05-16T05:40:37.105Z,10.80
2019-05-16T05:41:12.959Z,10.83
2019-05-16T05:41:50.462Z,10.83
2019-05-16T05:42:27.492Z,10.94
2019-05-16T05:43:03.352Z,10.94
2019-05-16T05:43:39.756Z,11.00
2019-05-16T05:44:16.368Z,10.97
2019-05-16T05:44:52.950Z,10.97
2019-05-16T05:45:30.601Z,11.18
2019-05-16T05:46:06.715Z,11.18
2019-05-16T05:46:42.919Z,11.21
2019-05-16T05:47:20.036Z,11.19
2019-05-16T05:47:56.473Z,11.27
2019-05-16T05:48:32.333Z,11.28
2019-05-16T05:49:10.388Z,11.32
2019-05-16T05:49:46.042Z,11.36
2019-05-16T05:50:22.536Z,11.41
2019-05-16T05:51:00.213Z,11.41
2019-05-16T05:51:36.025Z,11.43
2019-05-16T05:52:12.774Z,11.39
2019-05-16T05:52:50.533Z,11.35
2019-05-16T05:53:26.685Z,11.35
2019-05-16T05:54:02.518Z,11.35
2019-05-16T05:54:40.583Z,11.35
2019-05-16T05:55:16.168Z,11.39
2019-05-16T05:55:52.027Z,11.39
2019-05-16T05:56:30.313Z,11.34
2019-05-16T05:57:05.432Z,11.34
2019-05-16T05:57:41.413Z,11.44
2019-05-16T05:58:17.086Z,11.54
2019-05-16T05:58:53.767Z,11.54
2019-05-16T05:59:30.731Z,11.69
2019-05-16T06:00:07.039Z,11.72
2019-05-16T06:00:43.328Z,11.72
2019-05-16T06:01:20.517Z,11.77
2019-05-16T06:01:57.188Z,11.66
2019-05-16T06:02:33.318Z,11.66
2019-05-16T06:03:10.709Z,11.60
2019-05-16T06:03:46.615Z,11.60
2019-05-16T06:04:22.649Z,11.60
2019-05-16T06:04:59.751Z,11.68
2019-05-16T06:05:35.814Z,11.75
2019-05-16T06:06:12.622Z,11.83
2019-05-16T06:06:50.403Z,11.95
2019-05-16T06:07:26.168Z,11.87
2019-05-16T06:08:03.046Z,11.99
2019-05-16T06:08:40.886Z,11.92
2019-05-16T06:09:26.306Z,12.09
2019-05-16T06:09:56.541Z,12.09
2019-05-16T06:10:32.386Z,12.03
2019-05-16T06:11:09.964Z,12.06
2019-05-16T06:11:46.136Z,12.07
2019-05-16T06:12:21.980Z,12.12
2019-05-16T06:12:57.735Z,12.13
2019-05-16T06:13:33.768Z,12.01
2019-05-16T06:14:09.864Z,12.19
2019-05-16T06:14:45.664Z,12.13
2019-05-16T06:15:22.187Z,12.16
2019-05-16T06:16:00.035Z,12.05
2019-05-16T06:16:36.241Z,11.95
2019-05-16T06:17:13.007Z,12.00
2019-05-16T06:17:50.916Z,12.17
2019-05-16T06:18:27.177Z,12.16
2019-05-16T06:19:03.325Z,12.14
2019-05-16T06:19:40.201Z,12.06
2019-05-16T06:20:16.025Z,12.25
2019-05-16T06:20:52.536Z,12.26
2019-05-16T06:21:33.039Z,12.30
2019-05-16T06:22:06.188Z,12.27
2019-05-16T06:22:42.200Z,12.18
2019-05-16T06:23:20.733Z,12.18
2019-05-16T06:23:55.933Z,12.20
2019-05-16T06:24:32.166Z,12.00
2019-05-16T06:25:12.939Z,11.97
2019-05-16T06:25:45.901Z,11.99
2019-05-16T06:26:21.975Z,11.93
2019-05-16T06:27:00.784Z,11.89
2019-05-16T06:27:35.949Z,11.89
2019-05-16T06:28:11.985Z,11.89
2019-05-16T06:28:50.223Z,11.92
2019-05-16T06:29:25.271Z,11.84
2019-05-16T06:30:01.704Z,11.77
2019-05-16T06:30:37.564Z,11.78
2019-05-16T06:31:14.437Z,11.85
2019-05-16T06:31:50.629Z,11.92
2019-05-16T06:32:26.486Z,12.00
2019-05-16T06:33:02.329Z,12.06
2019-05-16T06:33:40.968Z,11.98
2019-05-16T06:34:15.974Z,11.84
2019-05-16T06:34:52.057Z,11.94
2019-05-16T06:35:29.885Z,11.95
2019-05-16T06:36:06.032Z,12.00
2019-05-16T06:36:42.167Z,11.95
2019-05-16T06:37:20.479Z,11.88
2019-05-16T06:37:56.560Z,11.91
2019-05-16T06:38:32.347Z,11.84
2019-05-16T06:39:11.380Z,11.84
2019-05-16T06:39:47.145Z,11.82
2019-05-16T06:40:23.216Z,11.88
2019-05-16T06:41:00.674Z,11.91
2019-05-16T06:41:36.642Z,11.94
2019-05-16T06:42:12.268Z,12.02
2019-05-16T06:42:50.878Z,12.04
2019-05-16T06:43:26.866Z,11.92
2019-05-16T06:44:02.858Z,11.89
2019-05-16T06:44:40.145Z,11.67
2019-05-16T06:45:16.434Z,11.66
2019-05-16T06:45:52.071Z,11.64
2019-05-16T06:46:30.512Z,11.63
2019-05-16T06:47:16.861Z,11.37
2019-05-16T06:47:43.216Z,11.72
2019-05-16T06:48:21.084Z,11.70
2019-05-16T06:48:57.061Z,11.80
2019-05-16T06:49:32.835Z,11.80
2019-05-16T06:50:11.430Z,11.78
2019-05-16T06:50:47.441Z,11.83
2019-05-16T06:51:23.381Z,11.88
2019-05-16T06:51:59.858Z,11.94
2019-05-16T06:52:35.818Z,11.89
2019-05-16T06:53:11.783Z,11.92
2019-05-16T06:53:50.027Z,12.00
2019-05-16T06:54:29.805Z,11.94
2019-05-16T06:55:06.205Z,11.94
2019-05-16T06:55:42.801Z,11.96
2019-05-16T06:56:20.005Z,11.95
2019-05-16T06:56:56.399Z,12.04
2019-05-16T06:57:33.037Z,12.04
2019-05-16T06:58:10.589Z,11.88
2019-05-16T06:58:50.956Z,11.87
2019-05-16T06:59:25.370Z,11.86
2019-05-16T07:00:01.938Z,11.89
2019-05-16T07:00:40.475Z,11.88
2019-05-16T07:01:16.088Z,11.67
2019-05-16T07:01:51.982Z,11.67
2019-05-16T07:02:33.658Z,11.78
2019-05-16T07:03:09.410Z,11.73
2019-05-16T07:03:44.424Z,11.71
2019-05-16T07:04:20.440Z,11.74
2019-05-16T07:04:56.703Z,11.75
2019-05-16T07:05:32.560Z,11.86
2019-05-16T07:06:11.130Z,11.86
2019-05-16T07:06:57.932Z,11.90
2019-05-16T07:07:23.941Z,11.94
2019-05-16T07:07:59.865Z,12.02
2019-05-16T07:08:35.921Z,12.10
2019-05-16T07:09:11.740Z,12.17
2019-05-16T07:09:58.112Z,12.21
2019-05-16T07:10:25.149Z,12.17
2019-05-16T07:11:01.061Z,12.28
2019-05-16T07:11:37.100Z,12.12
2019-05-16T07:12:14.388Z,12.08
2019-05-16T07:12:50.629Z,12.25
2019-05-16T07:13:26.349Z,12.26
2019-05-16T07:14:03.128Z,12.45
2019-05-16T07:14:40.594Z,12.44
2019-05-16T07:15:20.457Z,12.47
2019-05-16T07:15:57.439Z,12.47
2019-05-16T07:16:34.104Z,12.11
2019-05-16T07:17:10.331Z,12.11
2019-05-16T07:17:46.678Z,12.23
2019-05-16T07:18:23.459Z,12.26
2019-05-16T07:19:00.855Z,12.25
2019-05-16T07:19:37.902Z,12.24
2019-05-16T07:20:15.740Z,12.26
2019-05-16T07:20:51.586Z,12.44
2019-05-16T07:21:27.886Z,12.43
2019-05-16T07:22:04.656Z,12.57
2019-05-16T07:22:40.908Z,12.81
2019-05-16T07:23:17.877Z,12.80
2019-05-16T07:23:53.764Z,12.89
2019-05-16T07:24:30.520Z,12.92
2019-05-16T07:25:07.605Z,12.78
2019-05-16T07:25:44.037Z,12.59
2019-05-16T07:26:20.641Z,12.88
2019-05-16T07:26:56.853Z,12.96
2019-05-16T07:27:33.783Z,13.05
2019-05-16T07:28:10.212Z,13.06
2019-05-16T07:28:46.443Z,13.30
2019-05-16T07:29:22.902Z,13.25
2019-05-16T07:30:01.212Z,13.50
2019-05-16T07:30:36.564Z,13.33
2019-05-16T07:31:18.446Z,13.56
2019-05-16T07:31:52.266Z,13.45
2019-05-16T07:32:30.228Z,13.41
2019-05-16T07:33:06.877Z,13.57
2019-05-16T07:33:42.561Z,13.35
2019-05-16T07:34:20.604Z,13.29
2019-05-16T07:34:57.275Z,13.36
2019-05-16T07:35:33.894Z,13.35
2019-05-16T07:36:10.463Z,13.48
2019-05-16T07:36:46.958Z,13.49
2019-05-16T07:37:23.238Z,13.70
2019-05-16T07:38:00.566Z,13.73
2019-05-16T07:38:37.041Z,13.78
2019-05-16T07:39:13.688Z,13.89
2019-05-16T07:39:51.149Z,13.75
2019-05-16T07:40:27.361Z,13.74
2019-05-16T07:41:03.558Z,13.93
2019-05-16T07:41:40.170Z,13.78
2019-05-16T07:42:16.740Z,13.94
2019-05-16T07:42:52.582Z,14.10
2019-05-16T07:43:30.804Z,14.08
2019-05-16T07:44:10.577Z,14.25
2019-05-16T07:44:45.634Z,14.15
2019-05-16T07:45:21.715Z,13.91
2019-05-16T07:46:00.218Z,14.08
2019-05-16T07:46:35.174Z,14.32
2019-05-16T07:47:11.779Z,14.28
2019-05-16T07:47:47.883Z,14.21
2019-05-16T07:48:24.522Z,14.41
2019-05-16T07:49:01.353Z,14.46
2019-05-16T07:49:37.445Z,14.44
2019-05-16T07:50:13.853Z,14.39
2019-05-16T07:50:50.176Z,14.41
2019-05-16T07:51:27.591Z,14.38
2019-05-16T07:52:03.276Z,14.33
2019-05-16T07:52:40.421Z,14.33
2019-05-16T07:53:16.488Z,14.35
2019-05-16T07:53:53.540Z,14.25
2019-05-16T07:54:30.788Z,14.12
2019-05-16T07:55:10.507Z,14.11
2019-05-16T07:55:45.352Z,14.15